createdAt,value
2023-05-09T00:00:53.485Z,14.67
2023-05-09T00:03:20.065Z,14.17
2023-05-09T00:05:47.038Z,14.33
2023-05-09T00:08:13.752Z,13.60
2023-05-09T00:10:40.428Z,15.23
2023-05-09T00:13:07.109Z,13.87
2023-05-09T00:15:33.620Z,14.90
2023-05-09T00:18:00.169Z,13.83
2023-05-09T00:20:26.658Z,14.93
2023-05-09T00:22:53.118Z,13.53
2023-05-09T00:25:19.604Z,13.30
2023-05-09T00:27:46.123Z,12.70
2023-05-09T00:30:12.866Z,11.00
2023-05-09T00:32:41.218Z,13.27
2023-05-09T00:35:08.926Z,11.07
2023-05-09T00:37:35.672Z,11.77
2023-05-09T00:40:03.130Z,10.90
2023-05-09T00:42:29.835Z,10.67
2023-05-09T00:44:56.356Z,10.43
2023-05-09T00:47:23.870Z,12.47
2023-05-09T00:49:50.556Z,10.27
2023-05-09T00:52:17.570Z,9.20
2023-05-09T00:54:44.274Z,11.20
2023-05-09T00:57:10.890Z,9.97
2023-05-09T00:59:37.365Z,13.10
2023-05-09T01:02:03.861Z,10.53
2023-05-09T01:04:30.421Z,10.37
2023-05-09T01:07:20.550Z,9.37
2023-05-09T01:10:01.682Z,10.30
2023-05-09T01:12:37.639Z,10.13
2023-05-09T01:15:13.931Z,9.37
2023-05-09T01:18:06.858Z,7.67
2023-05-09T01:20:40.414Z,9.53
2023-05-09T01:23:22.964Z,10.63
2023-05-09T01:25:56.075Z,8.80
2023-05-09T01:29:07.667Z,7.20
2023-05-09T01:31:36.480Z,8.20
2023-05-09T01:34:03.580Z,7.70
2023-05-09T01:36:30.658Z,7.60
2023-05-09T01:38:58.108Z,7.07
2023-05-09T01:41:26.249Z,6.80
2023-05-09T01:43:56.209Z,6.70
2023-05-09T01:46:23.915Z,7.33
2023-05-09T01:48:50.812Z,6.33
2023-05-09T01:51:17.393Z,7.27
2023-05-09T01:53:45.223Z,7.83
2023-05-09T01:56:12.269Z,7.93
2023-05-09T01:58:39.557Z,8.33
2023-05-09T02:01:06.140Z,7.90
2023-05-09T02:03:34.093Z,6.40
2023-05-09T02:06:03.148Z,7.90
2023-05-09T02:08:29.720Z,7.10
2023-05-09T02:10:56.538Z,7.03
2023-05-09T02:13:23.418Z,6.13
2023-05-09T02:15:50.178Z,6.63
2023-05-09T02:18:16.897Z,6.13
2023-05-09T02:20:44.159Z,5.70
2023-05-09T02:23:11.479Z,5.43
2023-05-09T02:25:38.994Z,5.30
2023-05-09T02:28:06.044Z,5.00
2023-05-09T02:30:37.009Z,5.13
2023-05-09T02:33:06.367Z,5.00
2023-05-09T02:35:33.154Z,5.00
2023-05-09T02:38:00.636Z,5.10
2023-05-09T02:40:29.635Z,5.00
2023-05-09T02:42:56.755Z,5.20
2023-05-09T02:45:23.412Z,4.37
2023-05-09T02:47:49.952Z,4.73
2023-05-09T02:50:16.482Z,4.87
2023-05-09T02:52:43.558Z,4.97
2023-05-09T02:55:10.216Z,5.50
2023-05-09T02:57:39.335Z,4.83
2023-05-09T03:00:09.592Z,5.30
2023-05-09T03:02:37.414Z,5.07
2023-05-09T03:05:06.149Z,4.77
2023-05-09T03:07:34.842Z,5.60
2023-05-09T03:10:01.844Z,5.23
2023-05-09T03:12:29.851Z,5.67
2023-05-09T03:14:56.564Z,4.90
2023-05-09T03:17:23.269Z,4.80
2023-05-09T03:19:49.742Z,6.23
2023-05-09T03:22:16.434Z,5.10
2023-05-09T03:24:53.473Z,5.70
2023-05-09T03:27:20.333Z,5.63
2023-05-09T03:29:48.006Z,5.13
2023-05-09T03:32:16.331Z,5.37
2023-05-09T03:34:42.867Z,5.37
2023-05-09T03:37:10.910Z,5.37
2023-05-09T03:39:39.899Z,6.03
2023-05-09T03:42:07.114Z,5.80
2023-05-09T03:44:33.659Z,5.40
2023-05-09T03:47:01.084Z,6.63
2023-05-09T03:49:33.625Z,5.50
2023-05-09T03:52:00.430Z,6.43
2023-05-09T03:54:27.281Z,5.93
2023-05-09T03:56:55.728Z,6.27
2023-05-09T03:59:23.117Z,5.87
2023-05-09T04:01:49.693Z,5.10
2023-05-09T04:04:17.910Z,5.20
2023-05-09T04:06:44.656Z,4.83
2023-05-09T04:09:11.642Z,5.27
2023-05-09T04:11:41.235Z,5.20
2023-05-09T04:14:11.000Z,5.30
2023-05-09T04:16:37.654Z,5.97
2023-05-09T04:19:04.494Z,5.60
2023-05-09T04:21:32.012Z,5.93
2023-05-09T04:24:00.718Z,5.60
2023-05-09T04:26:39.842Z,6.00
2023-05-09T04:29:12.031Z,5.63
2023-05-09T04:31:39.230Z,5.70
2023-05-09T04:34:07.840Z,5.77
2023-05-09T04:36:37.110Z,6.37
2023-05-09T04:39:05.327Z,5.20
2023-05-09T04:41:34.114Z,5.80
2023-05-09T04:44:00.865Z,5.30
2023-05-09T04:46:27.838Z,5.70
2023-05-09T04:48:54.662Z,7.17
2023-05-09T04:51:21.179Z,6.30
2023-05-09T04:53:47.643Z,6.10
2023-05-09T04:56:16.459Z,5.97
2023-05-09T04:58:44.727Z,6.17
2023-05-09T05:01:11.800Z,5.07
2023-05-09T05:03:39.347Z,5.70
2023-05-09T05:06:06.597Z,5.47
2023-05-09T05:08:33.309Z,6.43
2023-05-09T05:10:59.898Z,5.70
2023-05-09T05:13:26.425Z,5.40
2023-05-09T05:15:56.613Z,6.53
2023-05-09T05:18:23.132Z,7.33
2023-05-09T05:20:49.782Z,5.37
2023-05-09T05:23:16.559Z,6.30
2023-05-09T05:25:43.282Z,5.90
2023-05-09T05:28:10.051Z,6.60
2023-05-09T05:30:37.838Z,6.23
2023-05-09T05:33:04.488Z,6.23
2023-05-09T05:35:31.027Z,6.63
2023-05-09T05:37:57.818Z,6.60
2023-05-09T05:40:25.315Z,5.73
2023-05-09T05:42:53.166Z,5.30
2023-05-09T05:45:20.133Z,4.73
2023-05-09T05:47:50.128Z,5.10
2023-05-09T05:50:17.363Z,5.40
2023-05-09T05:52:43.835Z,6.20
2023-05-09T05:55:13.455Z,6.93
2023-05-09T05:57:40.495Z,6.23
2023-05-09T06:00:12.206Z,5.73
2023-05-09T06:02:47.613Z,5.13
2023-05-09T06:05:21.719Z,5.00
2023-05-09T06:07:48.296Z,4.33
2023-05-09T06:10:17.125Z,4.80
2023-05-09T06:12:45.158Z,5.70
2023-05-09T06:15:12.101Z,4.97
2023-05-09T06:17:42.031Z,4.93
2023-05-09T06:20:08.757Z,5.10
2023-05-09T06:22:35.590Z,4.73
2023-05-09T06:25:02.348Z,5.17
2023-05-09T06:27:29.007Z,4.93
2023-05-09T06:29:55.534Z,4.80
2023-05-09T06:32:22.095Z,6.07
2023-05-09T06:34:48.582Z,5.00
2023-05-09T06:37:15.140Z,4.93
2023-05-09T06:39:41.609Z,4.90
2023-05-09T06:42:08.120Z,5.57
2023-05-09T06:44:37.924Z,5.00
2023-05-09T06:47:04.405Z,5.03
2023-05-09T06:49:30.883Z,5.60
2023-05-09T06:51:57.896Z,5.77
2023-05-09T06:54:24.654Z,6.53
2023-05-09T06:56:53.418Z,5.10
2023-05-09T06:59:20.190Z,5.80
2023-05-09T07:01:46.815Z,5.17
2023-05-09T07:04:13.530Z,5.53
2023-05-09T07:06:39.956Z,5.30
2023-05-09T07:09:06.455Z,5.70
2023-05-09T07:11:36.387Z,5.80
2023-05-09T07:14:03.752Z,6.10
2023-05-09T07:16:30.312Z,5.67
2023-05-09T07:18:56.852Z,6.27
2023-05-09T07:21:23.373Z,5.47
2023-05-09T07:23:49.858Z,6.60
2023-05-09T07:26:16.374Z,7.37
2023-05-09T07:28:42.822Z,6.40
2023-05-09T07:31:09.409Z,6.27
2023-05-09T07:33:36.045Z,6.00
2023-05-09T07:36:02.841Z,6.60
2023-05-09T07:38:29.336Z,7.13
2023-05-09T07:40:55.957Z,7.00
2023-05-09T07:43:22.438Z,6.37
2023-05-09T07:45:49.033Z,6.23
2023-05-09T07:48:15.703Z,6.20
2023-05-09T07:50:42.170Z,6.00
2023-05-09T07:53:08.638Z,6.57
2023-05-09T07:55:35.111Z,6.60
2023-05-09T07:58:01.569Z,5.67
2023-05-09T08:00:28.063Z,5.60
2023-05-09T08:02:54.963Z,5.50
2023-05-09T08:05:21.636Z,6.10
2023-05-09T08:07:48.112Z,6.37
2023-05-09T08:10:14.689Z,5.03
2023-05-09T08:12:41.283Z,5.97
2023-05-09T08:15:08.331Z,5.47
2023-05-09T08:17:34.910Z,6.53
2023-05-09T08:20:01.534Z,5.40
2023-05-09T08:22:28.044Z,5.33
2023-05-09T08:24:54.522Z,5.73
2023-05-09T08:27:20.987Z,4.90
2023-05-09T08:29:47.458Z,6.67
2023-05-09T08:32:14.299Z,6.20
2023-05-09T08:34:40.805Z,5.60
2023-05-09T08:37:07.640Z,5.70
2023-05-09T08:39:35.189Z,4.97
2023-05-09T08:42:02.407Z,4.77
2023-05-09T08:44:30.317Z,5.10
2023-05-09T08:46:59.804Z,7.27
2023-05-09T08:49:26.561Z,5.47
2023-05-09T08:51:53.487Z,4.40
2023-05-09T08:54:22.875Z,5.20
2023-05-09T08:56:50.252Z,5.00
2023-05-09T08:59:17.742Z,5.27
2023-05-09T09:01:44.613Z,4.83
2023-05-09T09:04:14.068Z,5.17
2023-05-09T09:06:40.754Z,4.57
2023-05-09T09:09:09.024Z,5.20
2023-05-09T09:11:36.365Z,4.53
2023-05-09T09:14:07.464Z,5.40
2023-05-09T09:16:35.930Z,5.13
2023-05-09T09:19:02.996Z,4.23
2023-05-09T09:21:32.004Z,4.57
2023-05-09T09:23:58.707Z,4.53
2023-05-09T09:26:29.177Z,4.73
2023-05-09T09:28:56.933Z,4.43
2023-05-09T09:31:25.636Z,4.40
2023-05-09T09:33:52.297Z,4.00
2023-05-09T09:36:29.440Z,4.17
2023-05-09T09:38:58.820Z,5.67
2023-05-09T09:41:32.179Z,5.53
2023-05-09T09:43:58.890Z,5.60
2023-05-09T09:46:25.826Z,5.00
2023-05-09T09:48:56.643Z,5.80
2023-05-09T09:51:27.455Z,6.40
2023-05-09T09:53:56.709Z,5.20
2023-05-09T09:56:38.841Z,5.10
2023-05-09T09:59:17.340Z,5.40
2023-05-09T10:02:07.102Z,4.53
2023-05-09T10:04:37.341Z,4.80
2023-05-09T10:07:06.204Z,5.20
2023-05-09T10:09:34.974Z,4.87
2023-05-09T10:12:05.342Z,5.40
2023-05-09T10:14:35.306Z,5.40
2023-05-09T10:17:05.061Z,5.07
2023-05-09T10:19:36.022Z,4.33
2023-05-09T10:22:08.548Z,6.20
2023-05-09T10:24:51.376Z,6.07
2023-05-09T10:27:19.731Z,5.13
2023-05-09T10:30:01.342Z,5.30
2023-05-09T10:32:32.181Z,5.43
2023-05-09T10:35:04.915Z,5.00
2023-05-09T10:37:32.863Z,5.07
2023-05-09T10:40:01.440Z,4.37
2023-05-09T10:42:29.248Z,4.83
2023-05-09T10:44:56.465Z,5.43
2023-05-09T10:47:24.249Z,5.07
2023-05-09T10:49:50.923Z,4.50
2023-05-09T10:52:18.819Z,4.90
2023-05-09T10:54:45.361Z,4.40
2023-05-09T10:57:12.181Z,4.60
2023-05-09T10:59:41.671Z,5.67
2023-05-09T11:02:13.907Z,4.60
2023-05-09T11:04:41.295Z,4.40
2023-05-09T11:07:24.156Z,5.00
2023-05-09T11:10:08.257Z,5.60
2023-05-09T11:12:34.963Z,5.00
2023-05-09T11:15:06.121Z,4.47
2023-05-09T11:17:32.715Z,4.87
2023-05-09T11:20:01.560Z,4.30
2023-05-09T11:22:30.814Z,4.73
2023-05-09T11:25:04.708Z,4.40
2023-05-09T11:27:52.190Z,4.60
2023-05-09T11:30:20.524Z,4.83
2023-05-09T11:32:51.328Z,5.60
2023-05-09T11:35:20.755Z,4.83
2023-05-09T11:38:04.792Z,4.97
2023-05-09T11:40:32.284Z,4.53
2023-05-09T11:43:00.582Z,4.87
2023-05-09T11:45:29.761Z,4.33
2023-05-09T11:47:59.254Z,5.77
2023-05-09T11:50:25.923Z,4.70
2023-05-09T11:52:53.571Z,4.33
2023-05-09T11:55:25.775Z,4.60
2023-05-09T11:57:54.133Z,4.53
2023-05-09T12:00:22.848Z,4.00
2023-05-09T12:02:51.064Z,3.50
2023-05-09T12:05:19.034Z,4.13
2023-05-09T12:07:46.968Z,3.30
2023-05-09T12:10:15.750Z,3.47
2023-05-09T12:12:47.655Z,3.97
2023-05-09T12:15:15.148Z,3.17
2023-05-09T12:17:42.839Z,3.70
2023-05-09T12:20:09.665Z,3.93
2023-05-09T12:22:37.489Z,3.50
2023-05-09T12:25:09.484Z,3.53
2023-05-09T12:27:37.795Z,3.60
2023-05-09T12:30:10.048Z,3.40
2023-05-09T12:32:39.134Z,4.17
2023-05-09T12:35:10.423Z,4.00
2023-05-09T12:37:37.144Z,4.43
2023-05-09T12:40:12.458Z,4.27
2023-05-09T12:42:39.636Z,3.50
2023-05-09T12:45:08.685Z,4.40
2023-05-09T12:47:35.456Z,3.83
2023-05-09T12:50:03.511Z,4.37
2023-05-09T12:52:34.728Z,3.80
2023-05-09T12:55:09.300Z,4.07
2023-05-09T12:57:35.880Z,4.00
2023-05-09T13:00:06.115Z,4.37
2023-05-09T13:02:40.329Z,4.37
2023-05-09T13:05:08.149Z,4.47
2023-05-09T13:07:48.027Z,3.97
2023-05-09T13:10:21.332Z,3.93
2023-05-09T13:12:49.182Z,4.20
2023-05-09T13:15:17.507Z,4.10
2023-05-09T13:17:44.323Z,3.80
2023-05-09T13:20:10.960Z,3.80
2023-05-09T13:22:37.645Z,4.07
2023-05-09T13:25:04.613Z,3.50
2023-05-09T13:27:32.188Z,3.73
2023-05-09T13:29:58.662Z,4.10
2023-05-09T13:32:25.412Z,3.80
2023-05-09T13:34:52.363Z,3.90
2023-05-09T13:37:18.924Z,3.87
2023-05-09T13:39:45.461Z,3.27
2023-05-09T13:42:12.106Z,4.07
2023-05-09T13:44:38.585Z,3.40
2023-05-09T13:47:07.742Z,3.77
2023-05-09T13:49:34.934Z,4.03
2023-05-09T13:52:01.553Z,3.87
2023-05-09T13:54:29.716Z,3.80
2023-05-09T13:56:56.204Z,3.20
2023-05-09T13:59:22.731Z,3.70
2023-05-09T14:01:49.358Z,3.47
2023-05-09T14:04:15.906Z,3.23
2023-05-09T14:06:48.004Z,2.90
2023-05-09T14:09:15.321Z,3.00
2023-05-09T14:11:42.488Z,3.23
2023-05-09T14:14:08.957Z,3.13
2023-05-09T14:16:35.736Z,2.27
2023-05-09T14:19:02.325Z,2.63
2023-05-09T14:21:29.049Z,2.90
2023-05-09T14:23:55.835Z,2.70
2023-05-09T14:26:22.347Z,3.37
2023-05-09T14:28:49.095Z,2.60
2023-05-09T14:31:15.646Z,2.70
2023-05-09T14:33:42.209Z,2.70
2023-05-09T14:36:08.912Z,2.80
2023-05-09T14:38:36.777Z,3.53
2023-05-09T14:41:03.515Z,3.67
2023-05-09T14:43:30.109Z,2.60
2023-05-09T14:45:57.614Z,3.00
2023-05-09T14:48:24.096Z,2.80
2023-05-09T14:50:53.516Z,2.20
2023-05-09T14:53:20.041Z,2.93
2023-05-09T14:55:46.528Z,2.50
2023-05-09T14:58:13.799Z,2.30
2023-05-09T15:00:40.282Z,2.40
2023-05-09T15:03:06.771Z,3.03
2023-05-09T15:05:33.254Z,2.30
2023-05-09T15:07:59.805Z,1.90
2023-05-09T15:10:27.697Z,2.10
2023-05-09T15:12:55.051Z,2.83
2023-05-09T15:15:25.710Z,3.30
2023-05-09T15:17:53.206Z,2.30
2023-05-09T15:20:19.963Z,1.80
2023-05-09T15:22:47.887Z,1.90
2023-05-09T15:25:15.250Z,2.77
2023-05-09T15:27:41.774Z,2.10
2023-05-09T15:30:09.340Z,2.07
2023-05-09T15:32:39.788Z,1.83
2023-05-09T15:35:07.021Z,2.40
2023-05-09T15:37:35.664Z,2.37
2023-05-09T15:40:02.624Z,2.27
2023-05-09T15:42:29.125Z,2.43
2023-05-09T15:44:55.593Z,2.47
2023-05-09T15:47:22.619Z,2.30
2023-05-09T15:49:49.065Z,2.40
2023-05-09T15:52:15.582Z,2.60
2023-05-09T15:54:42.162Z,2.17
2023-05-09T15:57:08.677Z,2.10
2023-05-09T15:59:35.109Z,1.83
2023-05-09T16:02:01.737Z,2.20
2023-05-09T16:04:28.274Z,2.60
2023-05-09T16:06:55.604Z,3.57
2023-05-09T16:09:22.026Z,2.80
2023-05-09T16:11:48.626Z,2.83
2023-05-09T16:14:15.162Z,2.90
2023-05-09T16:16:42.707Z,2.90
2023-05-09T16:19:09.828Z,2.70
2023-05-09T16:21:37.736Z,3.13
2023-05-09T16:24:05.048Z,2.73
2023-05-09T16:26:31.691Z,2.60
2023-05-09T16:28:58.190Z,3.20
2023-05-09T16:31:26.417Z,2.83
2023-05-09T16:33:54.217Z,2.47
2023-05-09T16:36:21.472Z,3.73
2023-05-09T16:38:49.690Z,2.70
2023-05-09T16:41:16.268Z,3.00
2023-05-09T16:43:42.806Z,3.23
2023-05-09T16:46:09.430Z,2.83
2023-05-09T16:48:36.042Z,4.13
2023-05-09T16:51:02.584Z,2.43
2023-05-09T16:53:29.103Z,2.50
2023-05-09T16:55:55.583Z,2.60
2023-05-09T16:58:22.071Z,2.90
2023-05-09T17:00:50.367Z,2.60
2023-05-09T17:03:16.995Z,2.63
2023-05-09T17:05:43.424Z,2.73
2023-05-09T17:08:09.927Z,3.00
2023-05-09T17:10:37.769Z,3.00
2023-05-09T17:13:08.417Z,2.67
2023-05-09T17:15:34.929Z,3.20
2023-05-09T17:18:01.571Z,2.97
2023-05-09T17:20:28.818Z,2.63
2023-05-09T17:22:56.337Z,2.70
2023-05-09T17:25:22.954Z,2.90
2023-05-09T17:27:49.380Z,2.77
2023-05-09T17:30:16.109Z,2.60
2023-05-09T17:32:43.075Z,3.10
2023-05-09T17:35:09.994Z,3.00
2023-05-09T17:37:36.526Z,3.07
2023-05-09T17:40:05.053Z,3.23
2023-05-09T17:42:31.586Z,2.87
2023-05-09T17:44:58.079Z,3.30
2023-05-09T17:47:24.857Z,2.93
2023-05-09T17:49:52.021Z,3.20
2023-05-09T17:52:18.541Z,2.83
2023-05-09T17:54:45.187Z,2.60
2023-05-09T17:57:11.657Z,3.20
2023-05-09T17:59:40.550Z,2.60
2023-05-09T18:02:07.790Z,3.30
2023-05-09T18:04:34.684Z,3.20
2023-05-09T18:07:01.334Z,3.17
2023-05-09T18:09:28.110Z,3.40
2023-05-09T18:11:54.654Z,3.63
2023-05-09T18:14:21.175Z,3.23
2023-05-09T18:16:47.633Z,3.53
2023-05-09T18:19:14.203Z,3.10
2023-05-09T18:21:40.889Z,3.60
2023-05-09T18:24:09.107Z,3.10
2023-05-09T18:26:35.585Z,3.70
2023-05-09T18:29:02.117Z,2.80
2023-05-09T18:31:28.659Z,3.30
2023-05-09T18:33:55.435Z,2.50
2023-05-09T18:36:21.905Z,3.67
2023-05-09T18:38:48.463Z,3.27
2023-05-09T18:41:15.709Z,3.43
2023-05-09T18:43:45.948Z,3.67
2023-05-09T18:46:17.466Z,2.77
2023-05-09T18:48:45.091Z,3.60
2023-05-09T18:51:12.063Z,2.90
2023-05-09T18:53:38.653Z,3.40
2023-05-09T18:56:05.143Z,3.30
2023-05-09T18:58:32.390Z,3.20
2023-05-09T19:00:58.981Z,3.10
2023-05-09T19:03:25.509Z,3.53
2023-05-09T19:05:51.972Z,3.23
2023-05-09T19:08:18.435Z,2.77
2023-05-09T19:10:44.902Z,3.53
2023-05-09T19:13:12.862Z,3.20
2023-05-09T19:15:40.510Z,2.70
2023-05-09T19:18:07.143Z,3.70
2023-05-09T19:20:33.668Z,3.50
2023-05-09T19:23:01.618Z,3.10
2023-05-09T19:25:33.551Z,3.10
2023-05-09T19:28:00.188Z,3.00
2023-05-09T19:30:27.031Z,2.97
2023-05-09T19:32:54.033Z,3.33
2023-05-09T19:35:20.712Z,3.40
2023-05-09T19:37:47.486Z,3.67
2023-05-09T19:40:14.821Z,3.00
2023-05-09T19:42:41.920Z,3.30
2023-05-09T19:45:08.948Z,3.37
2023-05-09T19:47:35.542Z,3.27
2023-05-09T19:50:02.158Z,3.50
2023-05-09T19:52:29.576Z,3.37
2023-05-09T19:54:56.121Z,3.37
2023-05-09T19:57:22.825Z,3.67
2023-05-09T19:59:49.373Z,3.70
2023-05-09T20:02:15.937Z,3.40
2023-05-09T20:04:49.361Z,3.90
2023-05-09T20:07:17.114Z,3.57
2023-05-09T20:09:43.665Z,3.67
2023-05-09T20:12:10.182Z,3.40
2023-05-09T20:14:36.802Z,3.77
2023-05-09T20:17:05.303Z,3.40
2023-05-09T20:19:33.141Z,3.60
2023-05-09T20:22:01.044Z,3.87
2023-05-09T20:24:27.740Z,3.20
2023-05-09T20:26:55.195Z,3.80
2023-05-09T20:29:21.760Z,4.00
2023-05-09T20:31:48.315Z,3.00
2023-05-09T20:34:17.772Z,3.60
2023-05-09T20:36:48.334Z,3.57
2023-05-09T20:39:17.644Z,3.47
2023-05-09T20:41:48.332Z,3.33
2023-05-09T20:44:15.918Z,3.67
2023-05-09T20:46:42.539Z,3.13
2023-05-09T20:49:09.247Z,3.93
2023-05-09T20:51:35.806Z,3.50
2023-05-09T20:54:02.329Z,3.57
2023-05-09T20:56:29.082Z,3.90
2023-05-09T20:58:56.430Z,4.27
2023-05-09T21:01:22.931Z,3.87
2023-05-09T21:03:49.480Z,3.73
2023-05-09T21:06:16.173Z,3.57
2023-05-09T21:08:43.291Z,3.70
2023-05-09T21:11:09.756Z,3.57
2023-05-09T21:13:37.205Z,3.43
2023-05-09T21:16:03.768Z,3.73
2023-05-09T21:18:30.360Z,3.60
2023-05-09T21:20:56.935Z,4.30
2023-05-09T21:23:23.414Z,3.50
2023-05-09T21:25:49.846Z,4.40
2023-05-09T21:28:17.289Z,4.27
2023-05-09T21:30:43.806Z,3.53
2023-05-09T21:33:10.660Z,3.80
2023-05-09T21:35:37.164Z,3.77
2023-05-09T21:38:03.684Z,3.83
2023-05-09T21:40:30.147Z,3.87
2023-05-09T21:42:56.693Z,3.40
2023-05-09T21:45:23.274Z,3.30
2023-05-09T21:47:49.896Z,4.20
2023-05-09T21:50:16.712Z,4.30
2023-05-09T21:52:43.423Z,3.23
2023-05-09T21:55:09.969Z,4.50
2023-05-09T21:57:36.431Z,3.60
2023-05-09T22:00:05.382Z,4.33
2023-05-09T22:02:40.604Z,4.30
2023-05-09T22:05:07.485Z,3.93
2023-05-09T22:07:34.035Z,4.27
2023-05-09T22:10:00.591Z,4.30
2023-05-09T22:12:27.103Z,4.37
2023-05-09T22:14:56.735Z,4.27
2023-05-09T22:17:24.385Z,3.97
2023-05-09T22:19:50.923Z,4.30
2023-05-09T22:22:17.543Z,4.60
2023-05-09T22:24:44.059Z,4.83
2023-05-09T22:27:10.926Z,4.37
2023-05-09T22:29:37.373Z,4.27
2023-05-09T22:32:04.732Z,4.63
2023-05-09T22:34:32.912Z,4.00
2023-05-09T22:36:59.380Z,4.23
2023-05-09T22:39:26.811Z,4.47
2023-05-09T22:41:53.277Z,3.93
2023-05-09T22:44:19.750Z,4.17
2023-05-09T22:46:46.284Z,4.53
2023-05-09T22:49:12.899Z,4.63
2023-05-09T22:51:39.387Z,5.07
2023-05-09T22:54:05.879Z,4.60
2023-05-09T22:56:32.356Z,4.80
2023-05-09T22:58:58.929Z,4.70
2023-05-09T23:01:27.096Z,6.00
2023-05-09T23:03:53.644Z,4.17
2023-05-09T23:06:20.309Z,4.83
2023-05-09T23:08:46.853Z,4.60
2023-05-09T23:11:13.313Z,4.73
2023-05-09T23:13:39.823Z,5.33
2023-05-09T23:16:06.487Z,4.67
2023-05-09T23:18:32.966Z,4.83
2023-05-09T23:20:59.415Z,6.10
2023-05-09T23:23:25.899Z,4.17
2023-05-09T23:25:52.339Z,5.63
2023-05-09T23:28:20.362Z,4.47
2023-05-09T23:30:46.822Z,4.80
2023-05-09T23:33:13.439Z,4.70
2023-05-09T23:35:39.883Z,5.90
2023-05-09T23:38:06.400Z,5.63
2023-05-09T23:40:32.875Z,4.90
2023-05-09T23:42:59.367Z,4.80
2023-05-09T23:45:26.069Z,6.23
2023-05-09T23:47:52.953Z,6.20
2023-05-09T23:50:19.581Z,5.27
2023-05-09T23:52:49.128Z,5.90
2023-05-09T23:55:15.626Z,5.40
2023-05-09T23:57:42.144Z,5.73
